Heavy Weather-kuvia

<< < (33/49) > >>

Pe7e:
Jepjep, Birminghamissa oli samat aamulla... näkyvyys 150m...

[ Attachment not found - or removed ]

Osguu:
Ootkos Petri tehny jotain tolle paneelin valaistukselle? Näyttää siistiltä. Mulla kun ei oo panel valo päällä niin se näyttää ihan erilaiselta.

Pe7e:
Quote

Ootkos Petri tehny jotain tolle paneelin valaistukselle? Näyttää siistiltä. Mulla kun ei oo panel valo päällä niin se näyttää ihan erilaiselta.

Noi valot saa päälle ku painaa tosta overhead valonamiskan vasemmalla puolella olevista namiskoista...

Osguu:
Quote

Noi valot saa päälle ku painaa tosta overhead valonamiskan vasemmalla puolella olevista namiskoista...


Rgr

Osguu:
Tulkaas muuten Kuopioon. Mukavat tuulet täällä irl. Crosswindiä luvassa laskeutuville.

Metar:

EFKU 311250Z 25018KT 9999 FEW031 SCT036 BKN045 02/M02 Q0997 33390141

Ohan tuo Oulussakin

EFOU 311250Z 29032G43KT 9999 VCSH SCT023 BKN033 M00/M06 Q0990 12710183

Hyvä syy vaikka lähteä testaamaan uuttaa sceneryä

EDIT: No helkkari. Tähän saa kaikki pohjoissuomen kentät listata jos tahtoo noi tuulet laittaa. Roviskin tarjoaa

EFRO 311250Z 31025G41KT 1400 R21/P1500D R03/P1500N SN BR VV007 M06/M06 Q0983 21790136

Navigation

Up one level

Next page

Previous page